SDG075 LIBD-LIRI
Flight info
| Callsign | SDG075 |
|---|---|
| Flight time | 0h 37m |
| Altitude | 4500 |
| Route | BARI GRUMMOAPULA POTENZAEST CONTURSITERME EBOLISTADIO |
| Aircraft | BE36/L-SDG075/C |
Departure
| Time | 2026-04-29 07:14 |
|---|---|
| Airport | Bari Karol Wojtyła International Airport (LIBD) |
Arrival
| Time | 2026-04-29 07:51 |
|---|---|
| Airport | Salerno Costa d'Amalfi Airport (LIRI) |
| Time | Latitude | Longitude | Altitude | Speed | Heading |
|---|---|---|---|---|---|
| 2026-04-29 06:59 | 41.13544 | 16.75897 | 156 ft | 0 kts | 347° |
| 2026-04-29 07:06 | 41.13562 | 16.75910 | 155 ft | 6 kts | 63° |
| 2026-04-29 07:06 | 41.13575 | 16.75967 | 153 ft | 0 kts | 71° |
| 2026-04-29 07:07 | 41.13589 | 16.75985 | 152 ft | 6 kts | 11° |
| 2026-04-29 07:07 | 41.13619 | 16.75958 | 153 ft | 4 kts | 286° |
| 2026-04-29 07:07 | 41.13622 | 16.75927 | 154 ft | 2 kts | 266° |
| 2026-04-29 07:08 | 41.13620 | 16.75913 | 155 ft | 3 kts | 257° |
| 2026-04-29 07:08 | 41.13604 | 16.75843 | 158 ft | 11 kts | 250° |
| 2026-04-29 07:08 | 41.13579 | 16.75748 | 159 ft | 11 kts | 249° |
| 2026-04-29 07:08 | 41.13554 | 16.75656 | 161 ft | 10 kts | 249° |
| 2026-04-29 07:09 | 41.13529 | 16.75573 | 163 ft | 9 kts | 248° |
| 2026-04-29 07:09 | 41.13506 | 16.75496 | 164 ft | 10 kts | 248° |
| 2026-04-29 07:09 | 41.13473 | 16.75387 | 165 ft | 15 kts | 250° |
| 2026-04-29 07:09 | 41.13434 | 16.75246 | 167 ft | 16 kts | 249° |
| 2026-04-29 07:10 | 41.13397 | 16.75114 | 172 ft | 14 kts | 250° |
| 2026-04-29 07:10 | 41.13367 | 16.75011 | 174 ft | 11 kts | 250° |
| 2026-04-29 07:10 | 41.13344 | 16.74920 | 177 ft | 9 kts | 264° |
| 2026-04-29 07:10 | 41.13366 | 16.74840 | 178 ft | 9 kts | 300° |
| 2026-04-29 07:11 | 41.13380 | 16.74808 | 178 ft | 0 kts | 299° |
| 2026-04-29 07:12 | 41.13394 | 16.74773 | 178 ft | 9 kts | 301° |
| 2026-04-29 07:12 | 41.13466 | 16.74747 | 176 ft | 16 kts | 34° |
| 2026-04-29 07:13 | 41.13581 | 16.75096 | 167 ft | 77 kts | 69° |
| 2026-04-29 07:13 | 41.13811 | 16.75856 | 381 ft | 97 kts | 67° |
| 2026-04-29 07:13 | 41.14100 | 16.76787 | 499 ft | 119 kts | 71° |
| 2026-04-29 07:13 | 41.14354 | 16.77848 | 776 ft | 121 kts | 73° |
| 2026-04-29 07:14 | 41.14318 | 16.79052 | 907 ft | 146 kts | 121° |
| 2026-04-29 07:14 | 41.13698 | 16.80209 | 1045 ft | 161 kts | 121° |
| 2026-04-29 07:14 | 41.13134 | 16.81542 | 1178 ft | 169 kts | 128° |
| 2026-04-29 07:14 | 41.12203 | 16.82482 | 1311 ft | 171 kts | 157° |
| 2026-04-29 07:15 | 41.11039 | 16.82740 | 1443 ft | 172 kts | 185° |
| 2026-04-29 07:15 | 41.09937 | 16.82234 | 1569 ft | 172 kts | 213° |
| 2026-04-29 07:15 | 41.09019 | 16.81197 | 1700 ft | 172 kts | 221° |
| 2026-04-29 07:15 | 41.08120 | 16.80156 | 1829 ft | 172 kts | 221° |
| 2026-04-29 07:16 | 41.07226 | 16.79130 | 1954 ft | 172 kts | 221° |
| 2026-04-29 07:16 | 41.06319 | 16.78090 | 2080 ft | 172 kts | 221° |
| 2026-04-29 07:16 | 41.05414 | 16.77052 | 2205 ft | 172 kts | 221° |
| 2026-04-29 07:16 | 41.04507 | 16.76015 | 2329 ft | 172 kts | 221° |
| 2026-04-29 07:17 | 41.03603 | 16.74978 | 2456 ft | 172 kts | 221° |
| 2026-04-29 07:17 | 41.02697 | 16.73943 | 2579 ft | 172 kts | 221° |
| 2026-04-29 07:17 | 41.01795 | 16.72911 | 2703 ft | 172 kts | 221° |
| 2026-04-29 07:17 | 41.00965 | 16.71785 | 2826 ft | 171 kts | 237° |
| 2026-04-29 07:18 | 41.00478 | 16.70353 | 2949 ft | 170 kts | 247° |
| 2026-04-29 07:18 | 41.00007 | 16.68908 | 3077 ft | 171 kts | 246° |
| 2026-04-29 07:18 | 40.99538 | 16.67468 | 3199 ft | 170 kts | 246° |
| 2026-04-29 07:18 | 40.99074 | 16.66028 | 3324 ft | 170 kts | 246° |
| 2026-04-29 07:19 | 40.98617 | 16.64611 | 3450 ft | 164 kts | 246° |
| 2026-04-29 07:19 | 40.98176 | 16.63241 | 3568 ft | 160 kts | 246° |
| 2026-04-29 07:19 | 40.97744 | 16.61901 | 3686 ft | 157 kts | 246° |
| 2026-04-29 07:19 | 40.97317 | 16.60581 | 3809 ft | 156 kts | 246° |
| 2026-04-29 07:20 | 40.96892 | 16.59265 | 3934 ft | 155 kts | 246° |
| 2026-04-29 07:20 | 40.96465 | 16.57945 | 4056 ft | 157 kts | 246° |
| 2026-04-29 07:20 | 40.96036 | 16.56620 | 4183 ft | 156 kts | 246° |
| 2026-04-29 07:20 | 40.95607 | 16.55295 | 4308 ft | 157 kts | 246° |
| 2026-04-29 07:21 | 40.95182 | 16.53981 | 4427 ft | 154 kts | 246° |
| 2026-04-29 07:21 | 40.94756 | 16.52671 | 4495 ft | 158 kts | 246° |
| 2026-04-29 07:21 | 40.94317 | 16.51313 | 4498 ft | 162 kts | 246° |
| 2026-04-29 07:21 | 40.93869 | 16.49928 | 4504 ft | 165 kts | 246° |
| 2026-04-29 07:22 | 40.93331 | 16.48590 | 4501 ft | 164 kts | 240° |
| 2026-04-29 07:22 | 40.92774 | 16.47266 | 4505 ft | 165 kts | 241° |
| 2026-04-29 07:22 | 40.92216 | 16.45932 | 4508 ft | 166 kts | 240° |
| 2026-04-29 07:22 | 40.91656 | 16.44596 | 4509 ft | 166 kts | 241° |
| 2026-04-29 07:23 | 40.91095 | 16.43257 | 4505 ft | 167 kts | 240° |
| 2026-04-29 07:23 | 40.90529 | 16.41912 | 4509 ft | 168 kts | 240° |
| 2026-04-29 07:23 | 40.89963 | 16.40562 | 4508 ft | 169 kts | 240° |
| 2026-04-29 07:23 | 40.89392 | 16.39205 | 4499 ft | 168 kts | 240° |
| 2026-04-29 07:24 | 40.88823 | 16.37855 | 4503 ft | 168 kts | 240° |
| 2026-04-29 07:24 | 40.88259 | 16.36513 | 4503 ft | 166 kts | 240° |
| 2026-04-29 07:24 | 40.87698 | 16.35179 | 4502 ft | 166 kts | 240° |
| 2026-04-29 07:24 | 40.87134 | 16.33841 | 4503 ft | 167 kts | 241° |
| 2026-04-29 07:25 | 40.86571 | 16.32505 | 4504 ft | 167 kts | 240° |
| 2026-04-29 07:25 | 40.86005 | 16.31163 | 4500 ft | 167 kts | 240° |
| 2026-04-29 07:25 | 40.85441 | 16.29823 | 4504 ft | 167 kts | 240° |
| 2026-04-29 07:25 | 40.84874 | 16.28480 | 4504 ft | 168 kts | 240° |
| 2026-04-29 07:26 | 40.84307 | 16.27137 | 4504 ft | 168 kts | 240° |
| 2026-04-29 07:26 | 40.83739 | 16.25791 | 4505 ft | 168 kts | 240° |
| 2026-04-29 07:26 | 40.83172 | 16.24449 | 4502 ft | 167 kts | 240° |
| 2026-04-29 07:26 | 40.82607 | 16.23113 | 4506 ft | 167 kts | 240° |
| 2026-04-29 07:27 | 40.82036 | 16.21767 | 4504 ft | 168 kts | 240° |
| 2026-04-29 07:27 | 40.81471 | 16.20421 | 4505 ft | 167 kts | 240° |
| 2026-04-29 07:27 | 40.80900 | 16.19078 | 4503 ft | 167 kts | 240° |
| 2026-04-29 07:27 | 40.80334 | 16.17742 | 4505 ft | 167 kts | 240° |
| 2026-04-29 07:28 | 40.79768 | 16.16405 | 4504 ft | 167 kts | 240° |
| 2026-04-29 07:28 | 40.79203 | 16.15067 | 4504 ft | 166 kts | 240° |
| 2026-04-29 07:28 | 40.78639 | 16.13745 | 4499 ft | 165 kts | 240° |
| 2026-04-29 07:28 | 40.78077 | 16.12417 | 4501 ft | 166 kts | 240° |
| 2026-04-29 07:29 | 40.77511 | 16.11082 | 4502 ft | 167 kts | 240° |
| 2026-04-29 07:29 | 40.76944 | 16.09746 | 4501 ft | 167 kts | 240° |
| 2026-04-29 07:29 | 40.76379 | 16.08411 | 4503 ft | 167 kts | 240° |
| 2026-04-29 07:29 | 40.75816 | 16.07091 | 4503 ft | 167 kts | 240° |
| 2026-04-29 07:30 | 40.75249 | 16.05758 | 4503 ft | 167 kts | 240° |
| 2026-04-29 07:30 | 40.74681 | 16.04425 | 4500 ft | 167 kts | 240° |
| 2026-04-29 07:30 | 40.74115 | 16.03093 | 4499 ft | 167 kts | 240° |
| 2026-04-29 07:31 | 40.72980 | 16.00427 | 4511 ft | 167 kts | 240° |
| 2026-04-29 07:31 | 40.72406 | 15.99076 | 4502 ft | 169 kts | 240° |
| 2026-04-29 07:31 | 40.71827 | 15.97720 | 4499 ft | 169 kts | 240° |
| 2026-04-29 07:31 | 40.71250 | 15.96362 | 4510 ft | 171 kts | 240° |
| 2026-04-29 07:32 | 40.70663 | 15.94991 | 4508 ft | 171 kts | 240° |
| 2026-04-29 07:32 | 40.70277 | 15.94082 | 4507 ft | 172 kts | 240° |
| 2026-04-29 07:32 | 40.69692 | 15.92713 | 4501 ft | 171 kts | 240° |
| 2026-04-29 07:32 | 40.69111 | 15.91358 | 4505 ft | 169 kts | 240° |
| 2026-04-29 07:33 | 40.68532 | 15.90007 | 4504 ft | 169 kts | 240° |
| 2026-04-29 07:33 | 40.67957 | 15.88656 | 4499 ft | 168 kts | 240° |
| 2026-04-29 07:33 | 40.67385 | 15.87315 | 4500 ft | 168 kts | 240° |
| 2026-04-29 07:33 | 40.66808 | 15.85971 | 4505 ft | 169 kts | 240° |
| 2026-04-29 07:34 | 40.66229 | 15.84620 | 4499 ft | 169 kts | 240° |
| 2026-04-29 07:34 | 40.65656 | 15.83275 | 4521 ft | 167 kts | 240° |
| 2026-04-29 07:34 | 40.65094 | 15.81962 | 4596 ft | 164 kts | 240° |
| 2026-04-29 07:34 | 40.64533 | 15.80658 | 4667 ft | 163 kts | 240° |
| 2026-04-29 07:35 | 40.63975 | 15.79356 | 4744 ft | 163 kts | 240° |
| 2026-04-29 07:35 | 40.63616 | 15.77945 | 4816 ft | 164 kts | 264° |
| 2026-04-29 07:35 | 40.63648 | 15.76455 | 4889 ft | 163 kts | 272° |
| 2026-04-29 07:35 | 40.63687 | 15.74957 | 4968 ft | 164 kts | 271° |
| 2026-04-29 07:36 | 40.63732 | 15.73466 | 4999 ft | 164 kts | 271° |
| 2026-04-29 07:36 | 40.63773 | 15.71953 | 4995 ft | 166 kts | 271° |
| 2026-04-29 07:36 | 40.63818 | 15.70425 | 5007 ft | 169 kts | 272° |
| 2026-04-29 07:36 | 40.63863 | 15.68886 | 5000 ft | 167 kts | 271° |
| 2026-04-29 07:37 | 40.63907 | 15.67360 | 5006 ft | 167 kts | 271° |
| 2026-04-29 07:37 | 40.63952 | 15.65827 | 5000 ft | 167 kts | 271° |
| 2026-04-29 07:37 | 40.63995 | 15.64288 | 5007 ft | 170 kts | 271° |
| 2026-04-29 07:37 | 40.64039 | 15.62720 | 4998 ft | 171 kts | 271° |
| 2026-04-29 07:38 | 40.64082 | 15.61153 | 5002 ft | 171 kts | 271° |
| 2026-04-29 07:38 | 40.64126 | 15.59570 | 4946 ft | 174 kts | 271° |
| 2026-04-29 07:38 | 40.64174 | 15.57977 | 4904 ft | 174 kts | 271° |
| 2026-04-29 07:38 | 40.64216 | 15.56382 | 4848 ft | 174 kts | 271° |
| 2026-04-29 07:39 | 40.64257 | 15.54826 | 4799 ft | 171 kts | 271° |
| 2026-04-29 07:39 | 40.64305 | 15.53249 | 4747 ft | 173 kts | 271° |
| 2026-04-29 07:39 | 40.64347 | 15.51680 | 4695 ft | 171 kts | 271° |
| 2026-04-29 07:39 | 40.64388 | 15.50113 | 4621 ft | 172 kts | 271° |
| 2026-04-29 07:40 | 40.64432 | 15.48510 | 4549 ft | 173 kts | 271° |
| 2026-04-29 07:40 | 40.64475 | 15.46926 | 4474 ft | 173 kts | 271° |
| 2026-04-29 07:40 | 40.64518 | 15.45356 | 4405 ft | 175 kts | 271° |
| 2026-04-29 07:40 | 40.64558 | 15.43725 | 4333 ft | 177 kts | 271° |
| 2026-04-29 07:41 | 40.64603 | 15.42099 | 4260 ft | 178 kts | 271° |
| 2026-04-29 07:41 | 40.64643 | 15.40486 | 4177 ft | 176 kts | 271° |
| 2026-04-29 07:41 | 40.64692 | 15.38892 | 4066 ft | 177 kts | 272° |
| 2026-04-29 07:41 | 40.64730 | 15.37247 | 3941 ft | 178 kts | 271° |
| 2026-04-29 07:42 | 40.64769 | 15.35607 | 3816 ft | 180 kts | 271° |
| 2026-04-29 07:42 | 40.64815 | 15.33976 | 3697 ft | 181 kts | 271° |
| 2026-04-29 07:42 | 40.64857 | 15.32313 | 3576 ft | 183 kts | 271° |
| 2026-04-29 07:42 | 40.64905 | 15.30634 | 3452 ft | 184 kts | 271° |
| 2026-04-29 07:43 | 40.64943 | 15.28947 | 3319 ft | 184 kts | 270° |
| 2026-04-29 07:43 | 40.64982 | 15.27275 | 3194 ft | 181 kts | 271° |
| 2026-04-29 07:43 | 40.65030 | 15.25613 | 3079 ft | 183 kts | 271° |
| 2026-04-29 07:43 | 40.65070 | 15.23935 | 2954 ft | 184 kts | 271° |
| 2026-04-29 07:44 | 40.65044 | 15.22267 | 2826 ft | 181 kts | 259° |
| 2026-04-29 07:44 | 40.64726 | 15.20656 | 2694 ft | 182 kts | 255° |
| 2026-04-29 07:44 | 40.64434 | 15.19047 | 2559 ft | 177 kts | 256° |
| 2026-04-29 07:44 | 40.64153 | 15.17513 | 2406 ft | 168 kts | 256° |
| 2026-04-29 07:45 | 40.63878 | 15.16039 | 2246 ft | 164 kts | 255° |
| 2026-04-29 07:45 | 40.63607 | 15.14586 | 2093 ft | 162 kts | 256° |
| 2026-04-29 07:45 | 40.63341 | 15.13155 | 2006 ft | 158 kts | 255° |
| 2026-04-29 07:45 | 40.63083 | 15.11780 | 1995 ft | 152 kts | 256° |
| 2026-04-29 07:46 | 40.62830 | 15.10428 | 1898 ft | 153 kts | 255° |
| 2026-04-29 07:46 | 40.62571 | 15.09060 | 1799 ft | 155 kts | 255° |
| 2026-04-29 07:46 | 40.62314 | 15.07682 | 1706 ft | 155 kts | 256° |
| 2026-04-29 07:46 | 40.62059 | 15.06307 | 1607 ft | 152 kts | 257° |
| 2026-04-29 07:47 | 40.62003 | 15.05015 | 1605 ft | 134 kts | 270° |
| 2026-04-29 07:47 | 40.62006 | 15.03840 | 1589 ft | 124 kts | 269° |
| 2026-04-29 07:47 | 40.62005 | 15.02741 | 1589 ft | 118 kts | 269° |
| 2026-04-29 07:47 | 40.62004 | 15.01673 | 1591 ft | 117 kts | 269° |
| 2026-04-29 07:48 | 40.62014 | 15.00620 | 1579 ft | 115 kts | 273° |
| 2026-04-29 07:48 | 40.62144 | 14.99539 | 1357 ft | 126 kts | 282° |
| 2026-04-29 07:48 | 40.62380 | 14.98452 | 1269 ft | 117 kts | 289° |
| 2026-04-29 07:48 | 40.62684 | 14.97505 | 1076 ft | 110 kts | 295° |
| 2026-04-29 07:49 | 40.63017 | 14.96681 | 979 ft | 96 kts | 298° |
| 2026-04-29 07:49 | 40.63365 | 14.95903 | 744 ft | 99 kts | 296° |
| 2026-04-29 07:49 | 40.63566 | 14.95062 | 561 ft | 95 kts | 275° |
| 2026-04-29 07:49 | 40.63546 | 14.94235 | 453 ft | 84 kts | 260° |
| 2026-04-29 07:50 | 40.63329 | 14.93553 | 383 ft | 81 kts | 236° |
| 2026-04-29 07:50 | 40.63013 | 14.92956 | 354 ft | 85 kts | 234° |
| 2026-04-29 07:50 | 40.62641 | 14.92318 | 328 ft | 81 kts | 231° |
| 2026-04-29 07:50 | 40.62293 | 14.91755 | 217 ft | 78 kts | 231° |
| 2026-04-29 07:51 | 40.62007 | 14.91262 | 112 ft | 51 kts | 233° |
| 2026-04-29 07:51 | 40.61928 | 14.91122 | 110 ft | 11 kts | 232° |
| 2026-04-29 07:51 | 40.61879 | 14.91041 | 107 ft | 11 kts | 231° |
| 2026-04-29 07:51 | 40.61831 | 14.90963 | 105 ft | 11 kts | 231° |
| 2026-04-29 07:52 | 40.61781 | 14.90893 | 103 ft | 11 kts | 212° |
| 2026-04-29 07:52 | 40.61719 | 14.90911 | 102 ft | 9 kts | 141° |
| 2026-04-29 07:52 | 40.61672 | 14.90960 | 102 ft | 8 kts | 141° |
| 2026-04-29 07:52 | 40.61634 | 14.91001 | 102 ft | 6 kts | 142° |
| 2026-04-29 07:53 | 40.61611 | 14.91002 | 101 ft | 1 kts | 231° |